Time;durP1;ratioP1;P1;durP2;ratioP2;P2;SDS_P1;SDS_P2;PMS_P1;PMS_P2;Temp;Humidity;BMP_temperature;BMP_pressure;BME280_temperature;BME280_humidity;BME280_pressure;Samples;Min_cycle;Max_cycle;Signal;HPM_P1;HPM_P2
2022/09/21 00:01:30;;;;;;;1.60;1.25;;;12.60;99.90;;;;;;4063272;29;20036;-66
2022/09/21 00:03:31;;;;;;;2.15;1.25;;;12.60;99.90;;;;;;4065100;29;20036;-67
2022/09/21 00:05:32;;;;;;;3.20;1.42;;;12.60;99.90;;;;;;4064182;29;20404;-66
2022/09/21 00:07:33;;;;;;;2.15;1.40;;;12.60;99.90;;;;;;4064781;29;20044;-66
2022/09/21 00:09:34;;;;;;;2.33;1.42;;;12.50;99.90;;;;;;4063811;29;20576;-66
2022/09/21 00:11:35;;;;;;;2.28;1.30;;;12.50;99.90;;;;;;4062225;29;20476;-67
2022/09/21 00:13:36;;;;;;;2.58;1.60;;;12.50;99.90;;;;;;4064588;29;20040;-66
2022/09/21 00:15:38;;;;;;;2.17;1.50;;;12.50;99.90;;;;;;4063179;29;20064;-66
2022/09/21 00:17:39;;;;;;;1.35;1.20;;;12.50;99.90;;;;;;4064475;29;20075;-66
2022/09/21 00:19:40;;;;;;;3.15;1.67;;;12.50;99.90;;;;;;4061652;29;20374;-66
2022/09/21 00:21:41;;;;;;;2.67;1.40;;;12.40;99.90;;;;;;4060417;29;20237;-66
2022/09/21 00:23:43;;;;;;;2.70;1.60;;;12.50;99.90;;;;;;4064875;29;20036;-66
2022/09/21 00:25:44;;;;;;;5.35;1.67;;;12.50;99.90;;;;;;4064249;29;20119;-66
2022/09/21 00:27:50;;;;;;;2.42;1.35;;;12.50;99.90;;;;;;4063234;29;20075;-66
2022/09/21 00:29:50;;;;;;;2.50;1.30;;;12.50;99.90;;;;;;4057801;29;20039;-66
2022/09/21 00:31:51;;;;;;;2.58;1.60;;;12.40;99.90;;;;;;4059350;29;20044;-66
2022/09/21 00:33:52;;;;;;;2.28;1.70;;;12.50;99.90;;;;;;4061830;29;20564;-66
2022/09/21 00:35:52;;;;;;;2.38;1.65;;;12.50;99.90;;;;;;4063538;29;20083;-66
2022/09/21 00:37:53;;;;;;;2.60;1.33;;;12.50;99.90;;;;;;4064508;29;20036;-66
2022/09/21 00:39:54;;;;;;;2.40;1.10;;;12.50;99.90;;;;;;4062919;29;20036;-66
2022/09/21 00:41:54;;;;;;;3.70;1.67;;;12.50;99.90;;;;;;4060829;29;20036;-67
2022/09/21 00:44:43;;;;;;;2.13;1.50;;;12.50;99.90;;;;;;4062688;29;20535;-66
2022/09/21 00:46:47;;;;;;;2.80;1.70;;;12.60;99.90;;;;;;4049255;29;20115;-67
2022/09/21 00:48:47;;;;;;;5.03;1.88;;;12.60;99.90;;;;;;4063450;29;20080;-66
2022/09/21 00:50:53;;;;;;;1.83;1.17;;;12.60;99.90;;;;;;4061626;29;20036;-66
2022/09/21 00:52:57;;;;;;;2.95;1.50;;;12.60;99.90;;;;;;4062701;29;20115;-66
2022/09/21 00:55:03;;;;;;;4.07;1.98;;;12.60;99.90;;;;;;4062839;29;20356;-66
2022/09/21 00:57:04;;;;;;;3.03;1.73;;;12.70;99.90;;;;;;4059672;29;20029;-66
2022/09/21 00:59:05;;;;;;;3.05;1.40;;;12.70;99.90;;;;;;4062914;29;20048;-67
2022/09/21 01:01:06;;;;;;;3.85;1.38;;;12.70;99.90;;;;;;4061137;29;20458;-66
2022/09/21 01:03:08;;;;;;;4.55;1.77;;;12.70;99.90;;;;;;4064123;29;20481;-67
2022/09/21 01:05:09;;;;;;;3.57;1.63;;;12.70;99.90;;;;;;4063339;29;20040;-66
2022/09/21 01:07:13;;;;;;;1.60;1.30;;;12.70;99.90;;;;;;4062964;29;20497;-67
2022/09/21 01:09:14;;;;;;;2.38;1.58;;;12.70;99.90;;;;;;4062576;29;20169;-66
2022/09/21 01:11:31;;;;;;;2.33;1.60;;;12.80;99.90;;;;;;4062906;29;20157;-66
2022/09/21 01:13:54;;;;;;;2.60;1.38;;;12.80;99.90;;;;;;4063622;29;20032;-66
2022/09/21 01:16:14;;;;;;;2.15;1.45;;;12.80;99.90;;;;;;4060859;29;20032;-66
2022/09/21 01:18:34;;;;;;;2.15;1.38;;;12.70;99.90;;;;;;4062582;29;20065;-66
2022/09/21 01:21:02;;;;;;;3.03;1.50;;;12.70;99.90;;;;;;4061980;29;20401;-67
2022/09/21 01:23:40;;;;;;;2.50;1.58;;;12.70;99.90;;;;;;4060303;29;20106;-66
2022/09/21 01:26:05;;;;;;;3.47;1.60;;;12.70;99.90;;;;;;4059758;29;20107;-66
2022/09/21 01:28:28;;;;;;;1.83;1.42;;;12.70;99.90;;;;;;4062238;29;20226;-66
2022/09/21 01:30:32;;;;;;;2.60;1.73;;;12.80;99.90;;;;;;4062497;29;20040;-67
2022/09/21 01:32:36;;;;;;;2.20;1.52;;;12.80;99.90;;;;;;4065582;29;20564;-66
2022/09/21 01:34:47;;;;;;;2.53;1.42;;;12.70;99.90;;;;;;4066865;29;20036;-66
2022/09/21 01:36:51;;;;;;;3.03;1.50;;;12.80;99.90;;;;;;4066053;29;20062;-67
2022/09/21 01:38:57;;;;;;;2.95;1.88;;;12.80;99.90;;;;;;4065989;29;20040;-66
2022/09/21 01:41:02;;;;;;;2.65;1.15;;;12.80;99.90;;;;;;4065230;29;20047;-66
2022/09/21 01:43:05;;;;;;;3.35;1.50;;;12.80;99.90;;;;;;4067177;29;20489;-67
2022/09/21 01:45:09;;;;;;;1.45;1.35;;;12.90;99.90;;;;;;4066551;29;20044;-66
2022/09/21 01:47:14;;;;;;;4.47;1.42;;;12.80;99.90;;;;;;4065053;29;20044;-66
2022/09/21 01:49:28;;;;;;;2.85;1.60;;;12.80;99.90;;;;;;4066478;29;20032;-67
2022/09/21 01:51:31;;;;;;;2.50;1.33;;;12.90;99.90;;;;;;4059842;29;20040;-66
2022/09/21 01:53:38;;;;;;;3.83;2.00;;;12.90;99.90;;;;;;4064616;29;20073;-66
2022/09/21 01:55:55;;;;;;;4.30;1.80;;;12.80;99.90;;;;;;4065833;29;20032;-68
2022/09/21 01:58:12;;;;;;;4.20;1.67;;;12.80;99.90;;;;;;4066359;29;20087;-66
2022/09/21 02:00:14;;;;;;;2.75;1.77;;;12.80;99.90;;;;;;4061230;29;20040;-67
2022/09/21 02:02:57;;;;;;;2.92;1.63;;;12.80;99.90;;;;;;4065520;29;20108;-66
2022/09/21 02:05:01;;;;;;;4.03;1.58;;;12.80;99.90;;;;;;4023911;29;20036;-67
2022/09/21 02:07:02;;;;;;;2.65;1.58;;;12.80;99.90;;;;;;4048757;29;20077;-66
2022/09/21 02:09:02;;;;;;;4.40;1.80;;;12.80;99.90;;;;;;4066143;29;20040;-67
2022/09/21 02:11:05;;;;;;;5.07;1.75;;;12.80;99.90;;;;;;4062940;29;20502;-67
2022/09/21 02:13:08;;;;;;;3.15;1.73;;;12.80;99.90;;;;;;4066076;29;20068;-67
2022/09/21 02:15:09;;;;;;;2.03;1.38;;;12.80;99.90;;;;;;4065556;29;20035;-67
2022/09/21 02:17:16;;;;;;;3.25;1.70;;;12.80;99.90;;;;;;4066302;29;20028;-66
2022/09/21 02:19:53;;;;;;;3.00;1.80;;;12.80;99.90;;;;;;4062549;29;20048;-67
2022/09/21 02:22:11;;;;;;;2.03;1.50;;;12.80;99.90;;;;;;4058792;29;20044;-66
2022/09/21 02:24:48;;;;;;;1.83;1.50;;;12.80;99.90;;;;;;4063022;29;20032;-66
2022/09/21 02:27:02;;;;;;;2.45;1.45;;;12.80;99.90;;;;;;4062173;29;20389;-66
2022/09/21 02:29:27;;;;;;;3.10;1.67;;;12.80;99.90;;;;;;4059449;29;20032;-67
2022/09/21 02:31:43;;;;;;;2.50;1.70;;;12.80;99.90;;;;;;4063686;29;20047;-67
2022/09/21 02:34:03;;;;;;;2.22;1.42;;;12.80;99.90;;;;;;4066403;29;20123;-67
2022/09/21 02:36:11;;;;;;;3.85;1.65;;;12.70;99.90;;;;;;4061729;29;20036;-66
2022/09/21 02:38:36;;;;;;;5.32;1.95;;;12.80;99.90;;;;;;4066453;29;20032;-64
2022/09/21 02:41:02;;;;;;;1.83;1.45;;;12.70;99.90;;;;;;4063228;29;20067;-65
2022/09/21 02:43:10;;;;;;;3.05;1.33;;;12.70;99.90;;;;;;4065159;29;20083;-64
2022/09/21 02:45:23;;;;;;;5.13;1.45;;;12.60;99.90;;;;;;4065233;29;20040;-64
2022/09/21 02:47:46;;;;;;;2.97;1.60;;;12.60;99.90;;;;;;4065266;29;20063;-64
2022/09/21 02:50:00;;;;;;;1.70;1.60;;;12.60;99.90;;;;;;4063864;29;20375;-64
2022/09/21 02:52:07;;;;;;;3.67;1.60;;;12.60;99.90;;;;;;4062964;29;20549;-64
2022/09/21 02:54:11;;;;;;;1.73;1.25;;;12.60;99.90;;;;;;4062045;29;20557;-64
2022/09/21 02:56:13;;;;;;;2.95;1.63;;;12.60;99.90;;;;;;4062738;29;20147;-63
2022/09/21 02:58:16;;;;;;;2.95;1.88;;;12.60;99.90;;;;;;4065799;29;20064;-64
2022/09/21 03:00:17;;;;;;;1.75;1.50;;;12.60;99.90;;;;;;4059781;29;20032;-64
2022/09/21 03:02:18;;;;;;;1.70;1.35;;;12.60;99.90;;;;;;4064957;29;20447;-64
2022/09/21 03:04:19;;;;;;;1.60;1.45;;;12.50;99.90;;;;;;4065511;29;20084;-64
2022/09/21 03:06:19;;;;;;;1.50;1.40;;;12.50;99.90;;;;;;4065130;29;20040;-64
2022/09/21 03:08:21;;;;;;;2.20;1.77;;;12.50;99.90;;;;;;4064356;29;20088;-64
2022/09/21 03:10:21;;;;;;;1.50;1.38;;;12.50;99.90;;;;;;4060704;29;20996;-64
2022/09/21 03:12:22;;;;;;;2.53;1.38;;;12.50;99.90;;;;;;4064133;29;20036;-64
2022/09/21 03:14:23;;;;;;;1.83;1.38;;;12.50;99.90;;;;;;4064426;29;20043;-64
2022/09/21 03:16:24;;;;;;;2.22;1.50;;;12.40;99.90;;;;;;4064286;29;20040;-66
2022/09/21 03:18:24;;;;;;;1.35;1.20;;;12.40;99.90;;;;;;4065376;29;20024;-64
2022/09/21 03:20:25;;;;;;;4.43;1.30;;;12.40;99.90;;;;;;4062450;29;20386;-64
2022/09/21 03:22:26;;;;;;;1.30;1.20;;;12.40;99.90;;;;;;4064002;29;20040;-64
2022/09/21 03:24:45;;;;;;;2.00;1.40;;;12.40;99.90;;;;;;4064885;29;20048;-64
2022/09/21 03:26:46;;;;;;;1.80;1.13;;;12.40;99.90;;;;;;4064795;29;20036;-64
2022/09/21 03:28:50;;;;;;;1.92;1.35;;;12.30;99.90;;;;;;4064474;29;20398;-65
2022/09/21 03:30:51;;;;;;;3.08;1.38;;;12.30;99.90;;;;;;4062790;29;20544;-64
2022/09/21 03:32:52;;;;;;;3.15;1.45;;;12.30;99.90;;;;;;4064039;29;20107;-64
2022/09/21 03:34:53;;;;;;;2.17;1.63;;;12.30;99.90;;;;;;4065348;29;20035;-64
2022/09/21 03:36:54;;;;;;;2.13;1.80;;;12.20;99.90;;;;;;4064351;29;20070;-66
2022/09/21 03:38:54;;;;;;;3.10;1.92;;;12.30;99.90;;;;;;4064349;29;20098;-65
2022/09/21 03:40:56;;;;;;;3.53;1.52;;;12.20;99.90;;;;;;4060801;29;20028;-64
2022/09/21 03:42:57;;;;;;;3.15;1.58;;;12.20;99.90;;;;;;4060094;29;20433;-64
2022/09/21 03:44:58;;;;;;;2.22;1.70;;;12.20;99.90;;;;;;4065058;29;20111;-64
2022/09/21 03:46:59;;;;;;;2.60;1.25;;;12.20;99.90;;;;;;4064475;29;20515;-64
2022/09/21 03:49:00;;;;;;;2.10;1.35;;;12.20;99.90;;;;;;4064756;29;20040;-64
2022/09/21 03:51:00;;;;;;;2.92;1.40;;;12.20;99.90;;;;;;4059346;29;20042;-64
2022/09/21 03:53:01;;;;;;;1.80;1.40;;;12.20;99.90;;;;;;4065085;29;20072;-64
2022/09/21 03:55:05;;;;;;;2.80;1.80;;;12.20;99.90;;;;;;4059603;29;20523;-64
2022/09/21 03:57:05;;;;;;;2.97;1.50;;;12.20;99.90;;;;;;4063135;29;20039;-64
2022/09/21 03:59:06;;;;;;;2.15;1.20;;;12.10;99.90;;;;;;4062390;29;20493;-64
2022/09/21 04:01:07;;;;;;;2.80;1.70;;;12.10;99.90;;;;;;4062599;29;20028;-64
2022/09/21 04:03:07;;;;;;;5.38;1.42;;;12.10;99.90;;;;;;4063339;29;20076;-64
2022/09/21 04:05:10;;;;;;;2.65;1.80;;;12.00;99.90;;;;;;4063107;29;20040;-64
2022/09/21 04:07:11;;;;;;;1.98;1.50;;;12.00;99.90;;;;;;4063176;29;20051;-64
2022/09/21 04:09:11;;;;;;;2.78;1.33;;;12.10;99.90;;;;;;4047451;29;20048;-64
2022/09/21 04:11:15;;;;;;;4.68;2.13;;;12.00;99.90;;;;;;4061142;29;20024;-64
2022/09/21 04:13:15;;;;;;;3.05;1.88;;;12.10;99.90;;;;;;4062822;29;20040;-64
2022/09/21 04:15:18;;;;;;;2.03;1.60;;;12.00;99.90;;;;;;4062704;29;20501;-64
2022/09/21 04:17:19;;;;;;;3.13;1.77;;;12.00;99.90;;;;;;4053755;29;20156;-63
2022/09/21 04:19:21;;;;;;;4.00;1.88;;;12.00;99.90;;;;;;4059814;29;20434;-64
2022/09/21 04:21:21;;;;;;;3.22;1.80;;;12.00;99.90;;;;;;4060064;29;20031;-64
2022/09/21 04:23:22;;;;;;;2.70;1.58;;;12.00;99.90;;;;;;4057929;29;20490;-64
2022/09/21 04:25:23;;;;;;;1.88;1.60;;;11.90;99.90;;;;;;4063767;29;20107;-64
2022/09/21 04:27:23;;;;;;;1.95;1.73;;;11.90;99.90;;;;;;4063710;29;20040;-64
2022/09/21 04:29:24;;;;;;;2.42;1.60;;;11.80;99.90;;;;;;4060046;29;20028;-64
2022/09/21 04:31:26;;;;;;;2.85;1.90;;;11.80;99.90;;;;;;4060031;29;20025;-65
2022/09/21 04:33:26;;;;;;;2.90;1.83;;;11.80;99.90;;;;;;4059517;29;20430;-64
2022/09/21 04:35:27;;;;;;;2.53;1.50;;;11.80;99.90;;;;;;4061295;29;20047;-64
2022/09/21 04:37:28;;;;;;;1.50;1.30;;;11.80;99.90;;;;;;4063664;29;20036;-64
2022/09/21 04:39:28;;;;;;;2.50;1.75;;;11.70;99.90;;;;;;4062433;29;20398;-64
2022/09/21 04:41:29;;;;;;;2.40;1.50;;;11.70;99.90;;;;;;4055743;29;20035;-64
2022/09/21 04:43:29;;;;;;;1.50;1.25;;;11.70;99.90;;;;;;4061889;29;20036;-64
2022/09/21 04:45:31;;;;;;;2.05;1.30;;;11.70;99.90;;;;;;4057581;29;20041;-64
2022/09/21 04:47:31;;;;;;;2.97;1.50;;;11.60;99.90;;;;;;4056483;29;20544;-64
2022/09/21 04:49:32;;;;;;;1.80;1.70;;;11.60;99.90;;;;;;4059499;29;20039;-64
2022/09/21 04:51:33;;;;;;;1.58;1.48;;;11.60;99.90;;;;;;4059670;29;20409;-64
2022/09/21 04:53:35;;;;;;;1.80;1.38;;;11.60;99.90;;;;;;4062570;29;20123;-64
2022/09/21 04:55:36;;;;;;;;;;;11.50;99.90;;;;;;4059088;29;20036;-64
2022/09/21 04:57:37;;;;;;;4.20;1.50;;;11.60;99.90;;;;;;4064339;29;19930;-64
2022/09/21 04:59:37;;;;;;;1.75;1.30;;;11.50;99.90;;;;;;4061401;29;20112;-64
2022/09/21 05:01:38;;;;;;;1.92;1.50;;;11.50;99.90;;;;;;4058476;29;20414;-64
2022/09/21 05:03:38;;;;;;;2.35;1.63;;;11.50;99.90;;;;;;4061685;28;20047;-64
2022/09/21 05:05:46;;;;;;;2.72;1.55;;;11.40;99.90;;;;;;4062383;29;20397;-63
2022/09/21 05:07:46;;;;;;;5.00;1.77;;;11.40;99.90;;;;;;4059350;29;20147;-63
2022/09/21 05:10:02;;;;;;;3.42;1.85;;;11.40;99.90;;;;;;4063891;29;20036;-63
2022/09/21 05:12:03;;;;;;;2.72;1.45;;;11.40;99.90;;;;;;4058232;29;20034;-63
2022/09/21 05:14:04;;;;;;;2.47;1.67;;;11.40;99.90;;;;;;4064029;29;20562;-63
2022/09/21 05:16:04;;;;;;;6.20;1.55;;;11.40;99.90;;;;;;4062837;29;20048;-62
2022/09/21 05:18:05;;;;;;;1.65;1.50;;;11.40;99.90;;;;;;4062689;29;20071;-63
2022/09/21 05:20:06;;;;;;;2.55;1.48;;;11.40;99.90;;;;;;4058966;29;20036;-65
2022/09/21 05:22:07;;;;;;;2.95;1.60;;;11.30;99.90;;;;;;4059155;29;20519;-62
2022/09/21 05:24:07;;;;;;;1.77;1.48;;;11.30;99.90;;;;;;4060313;29;20029;-63
2022/09/21 05:26:08;;;;;;;1.67;1.48;;;11.30;99.90;;;;;;4059629;29;20040;-62
2022/09/21 05:28:09;;;;;;;3.45;1.70;;;11.30;99.90;;;;;;4059023;29;20055;-63
2022/09/21 05:30:10;;;;;;;3.15;1.65;;;11.30;99.90;;;;;;4059985;29;20055;-63
2022/09/21 05:32:30;;;;;;;4.05;2.15;;;11.30;99.90;;;;;;4061902;29;20037;-63
2022/09/21 05:34:52;;;;;;;2.22;1.80;;;11.30;99.90;;;;;;4074258;29;20099;-63
2022/09/21 05:37:09;;;;;;;3.30;1.73;;;11.30;99.90;;;;;;4060586;29;20375;-63
2022/09/21 05:39:10;;;;;;;2.92;1.80;;;11.30;99.90;;;;;;4054781;29;20035;-63
2022/09/21 05:41:11;;;;;;;3.42;2.10;;;11.30;99.90;;;;;;4061683;29;20118;-63
2022/09/21 05:43:12;;;;;;;2.75;1.90;;;11.30;99.90;;;;;;4061076;29;20088;-63
2022/09/21 05:45:15;;;;;;;4.55;2.15;;;11.20;99.90;;;;;;4062006;29;20028;-64
2022/09/21 05:47:35;;;;;;;3.10;2.30;;;11.30;99.90;;;;;;4062937;29;23593;-63
2022/09/21 05:50:09;;;;;;;2.67;2.13;;;11.30;99.90;;;;;;4061920;29;20568;-63
2022/09/21 05:52:49;;;;;;;2.85;1.67;;;11.30;99.90;;;;;;4062177;29;20036;-63
2022/09/21 05:55:14;;;;;;;4.85;1.80;;;11.30;99.90;;;;;;4056203;29;20043;-63
2022/09/21 05:57:26;;;;;;;3.13;2.40;;;11.40;99.90;;;;;;4063616;29;20062;-63
2022/09/21 05:59:48;;;;;;;4.70;2.28;;;11.40;99.90;;;;;;4062918;29;20363;-64
2022/09/21 06:02:11;;;;;;;2.85;1.77;;;11.40;99.90;;;;;;4062730;29;20086;-62
2022/09/21 06:04:12;;;;;;;3.17;2.17;;;11.40;99.90;;;;;;4063137;29;20028;-63
2022/09/21 06:06:12;;;;;;;5.65;2.33;;;11.50;99.90;;;;;;4062581;29;20059;-63
2022/09/21 06:08:13;;;;;;;6.05;2.53;;;11.50;99.90;;;;;;4061950;29;20082;-62
2022/09/21 06:10:15;;;;;;;2.83;2.03;;;11.50;99.90;;;;;;4060782;29;20032;-63
2022/09/21 06:12:15;;;;;;;3.75;2.30;;;11.60;99.90;;;;;;4057848;29;20044;-63
2022/09/21 06:14:23;;;;;;;6.78;2.33;;;11.60;99.90;;;;;;4063870;29;20047;-63
2022/09/21 06:16:23;;;;;;;6.35;2.13;;;11.50;99.90;;;;;;4065676;29;20504;-63
2022/09/21 06:18:24;;;;;;;3.58;2.08;;;11.60;99.90;;;;;;4066538;29;20035;-63
2022/09/21 06:20:25;;;;;;;2.53;1.73;;;11.60;99.90;;;;;;4063475;29;20047;-62
2022/09/21 06:22:25;;;;;;;2.72;2.05;;;11.60;99.90;;;;;;4066148;29;20107;-62
2022/09/21 06:24:26;;;;;;;2.50;2.28;;;11.70;99.90;;;;;;4065062;29;20104;-63
2022/09/21 06:26:27;;;;;;;4.80;2.22;;;11.80;99.90;;;;;;4063634;29;20449;-64
2022/09/21 06:28:28;;;;;;;3.22;2.20;;;11.90;99.90;;;;;;4065651;29;20502;-63
2022/09/21 06:30:32;;;;;;;3.22;2.08;;;12.00;99.90;;;;;;4062043;29;20123;-63
2022/09/21 06:32:32;;;;;;;5.18;2.15;;;12.20;99.90;;;;;;4066144;29;20055;-63
2022/09/21 06:34:33;;;;;;;4.32;2.10;;;12.40;99.90;;;;;;4063984;29;20100;-63
2022/09/21 06:36:33;;;;;;;4.30;2.17;;;12.50;99.90;;;;;;4065707;29;20051;-63
2022/09/21 06:38:35;;;;;;;4.32;2.53;;;12.70;99.90;;;;;;4061356;29;20489;-63
2022/09/21 06:40:36;;;;;;;3.65;2.55;;;12.90;99.90;;;;;;4063038;29;20545;-63
2022/09/21 06:42:37;;;;;;;4.88;2.53;;;13.10;99.90;;;;;;4065486;29;20051;-63
2022/09/21 06:44:37;;;;;;;3.70;2.60;;;13.20;99.90;;;;;;4064489;29;20572;-63
2022/09/21 06:46:38;;;;;;;2.92;2.10;;;13.30;99.90;;;;;;4062200;29;20453;-62
2022/09/21 06:48:38;;;;;;;3.95;2.15;;;13.40;99.90;;;;;;4059322;29;20489;-63
2022/09/21 06:50:39;;;;;;;2.95;2.28;;;13.50;99.90;;;;;;4063150;29;20066;-64
2022/09/21 06:52:40;;;;;;;3.40;2.33;;;13.60;99.90;;;;;;4064194;29;20047;-63
2022/09/21 06:54:41;;;;;;;3.63;2.42;;;13.60;99.90;;;;;;4064606;29;20490;-64
2022/09/21 06:56:42;;;;;;;5.68;2.72;;;13.60;99.90;;;;;;4060372;29;20050;-64
2022/09/21 06:58:42;;;;;;;3.17;2.03;;;13.60;99.90;;;;;;4061896;29;20494;-64
2022/09/21 07:00:43;;;;;;;4.53;2.83;;;13.60;99.90;;;;;;4061549;29;20407;-64
2022/09/21 07:02:44;;;;;;;3.03;2.30;;;13.60;99.90;;;;;;4061997;29;20501;-64
2022/09/21 07:04:45;;;;;;;4.03;2.38;;;13.70;99.90;;;;;;4062097;29;20588;-65
2022/09/21 07:06:45;;;;;;;3.63;2.38;;;13.70;99.90;;;;;;4060683;28;20417;-63
2022/09/21 07:08:47;;;;;;;4.45;2.33;;;13.70;99.90;;;;;;4059780;29;20497;-64
2022/09/21 07:10:48;;;;;;;4.20;2.47;;;13.70;99.90;;;;;;4060392;28;20036;-63
2022/09/21 07:12:50;;;;;;;3.63;2.42;;;13.80;99.90;;;;;;4060435;29;20581;-63
2022/09/21 07:14:51;;;;;;;5.53;2.70;;;13.80;99.90;;;;;;4061366;28;20040;-63
2022/09/21 07:16:52;;;;;;;2.80;2.30;;;13.80;99.90;;;;;;4059153;28;20044;-65
2022/09/21 07:18:52;;;;;;;2.75;2.33;;;13.80;99.90;;;;;;4059515;29;20047;-63
2022/09/21 07:20:53;;;;;;;3.80;3.00;;;13.90;99.90;;;;;;4058998;29;20034;-63
2022/09/21 07:22:54;;;;;;;4.70;2.78;;;13.90;99.90;;;;;;4061072;29;20043;-63
2022/09/21 07:24:55;;;;;;;3.53;2.75;;;13.90;99.90;;;;;;4059500;29;20040;-63
2022/09/21 07:26:56;;;;;;;4.43;2.95;;;13.90;99.90;;;;;;4060319;28;20494;-62
2022/09/21 07:28:57;;;;;;;5.53;3.25;;;14.00;99.90;;;;;;4061619;29;20040;-63
2022/09/21 07:31:04;;;;;;;5.93;2.97;;;14.00;99.90;;;;;;4059004;29;20490;-65
2022/09/21 07:33:05;;;;;;;8.38;4.03;;;14.10;99.90;;;;;;4060852;29;20520;-63
2022/09/21 07:35:06;;;;;;;4.95;3.20;;;14.10;99.90;;;;;;4061821;29;20040;-63
2022/09/21 07:37:07;;;;;;;8.05;3.90;;;14.10;99.90;;;;;;4065287;29;20060;-62
2022/09/21 07:39:08;;;;;;;8.75;3.72;;;14.20;99.90;;;;;;4064116;29;20036;-63
2022/09/21 07:41:12;;;;;;;6.72;3.55;;;14.30;99.90;;;;;;4063910;29;20416;-63
2022/09/21 07:43:12;;;;;;;7.00;3.80;;;14.40;99.90;;;;;;4061003;29;20036;-63
2022/09/21 07:45:13;;;;;;;5.35;3.47;;;14.40;99.90;;;;;;4064332;29;20029;-63
2022/09/21 07:47:14;;;;;;;6.28;3.40;;;14.40;99.90;;;;;;4065500;29;20482;-63
2022/09/21 07:49:15;;;;;;;8.35;3.90;;;14.40;99.90;;;;;;4063660;29;20107;-63
2022/09/21 07:51:16;;;;;;;6.97;3.53;;;14.50;99.90;;;;;;4064197;29;20039;-63
2022/09/21 07:53:16;;;;;;;7.47;3.33;;;14.50;99.90;;;;;;4065152;29;20048;-63
2022/09/21 07:55:17;;;;;;;5.47;3.20;;;14.60;99.90;;;;;;4062603;29;20406;-64
2022/09/21 07:59:37;;;;;;;7.38;3.55;;;14.60;99.90;;;;;;4061554;29;20474;-63
2022/09/21 08:01:39;;;;;;;7.25;3.63;;;14.60;99.90;;;;;;4062465;29;20115;-63
2022/09/21 08:03:40;;;;;;;6.53;3.45;;;14.70;99.90;;;;;;4061717;29;20063;-63
2022/09/21 08:05:41;;;;;;;7.35;3.67;;;14.80;99.90;;;;;;4054912;29;20041;-64
2022/09/21 08:07:41;;;;;;;8.38;4.00;;;14.90;99.90;;;;;;4059741;29;20046;-64
2022/09/21 08:09:42;;;;;;;5.93;3.25;;;15.00;99.90;;;;;;4059024;29;20086;-63
2022/09/21 08:11:43;;;;;;;10.00;3.78;;;15.10;99.90;;;;;;4062275;29;20095;-65
2022/09/21 08:13:45;;;;;;;9.98;3.85;;;15.30;99.90;;;;;;4060576;29;20502;-65
2022/09/21 08:15:46;;;;;;;7.07;3.47;;;15.40;99.90;;;;;;4061105;29;20032;-63
2022/09/21 08:17:47;;;;;;;7.75;3.85;;;15.60;99.90;;;;;;4064132;29;20032;-63
2022/09/21 08:19:47;;;;;;;7.43;3.83;;;15.80;99.90;;;;;;4063676;29;20037;-64
2022/09/21 08:21:49;;;;;;;9.27;3.83;;;15.90;99.90;;;;;;4062634;29;20099;-63
2022/09/21 08:23:50;;;;;;;7.30;4.13;;;16.00;99.90;;;;;;4061446;29;20040;-64
2022/09/21 08:25:51;;;;;;;9.98;4.00;;;16.20;99.90;;;;;;4062817;29;20042;-64
2022/09/21 08:27:57;;;;;;;7.45;3.83;;;16.30;99.90;;;;;;4063355;29;20040;-63
2022/09/21 08:29:57;;;;;;;10.57;4.07;;;16.40;99.90;;;;;;4061789;29;20072;-64
2022/09/21 08:31:58;;;;;;;7.50;3.53;;;16.50;99.90;;;;;;4062806;29;20509;-64
2022/09/21 08:33:59;;;;;;;7.95;4.00;;;16.60;99.90;;;;;;4063852;29;20040;-65
2022/09/21 08:36:00;;;;;;;10.35;4.05;;;16.80;99.90;;;;;;4060402;29;20036;-66
2022/09/21 08:38:01;;;;;;;10.70;3.95;;;16.90;99.90;;;;;;4062925;29;20112;-64
2022/09/21 08:40:04;;;;;;;7.90;4.13;;;17.00;99.90;;;;;;4061834;29;20043;-65
2022/09/21 08:42:39;;;;;;;8.68;4.38;;;17.10;99.90;;;;;;4063269;29;20104;-64
2022/09/21 08:44:50;;;;;;;8.65;4.70;;;17.20;99.90;;;;;;4056466;29;20036;-65
2022/09/21 08:47:21;;;;;;;7.72;4.15;;;17.30;99.90;;;;;;4063087;29;20044;-65
2022/09/21 08:49:25;;;;;;;5.70;3.42;;;17.40;99.90;;;;;;4060263;29;20051;-64
2022/09/21 08:51:31;;;;;;;5.63;3.38;;;17.50;99.90;;;;;;4062610;29;20036;-65
2022/09/21 08:53:34;;;;;;;10.30;3.70;;;17.60;99.90;;;;;;4063321;29;20043;-64
2022/09/21 08:55:35;;;;;;;8.73;3.63;;;17.60;99.90;;;;;;4061698;29;20025;-64
2022/09/21 08:57:36;;;;;;;8.18;3.63;;;17.50;99.90;;;;;;4063507;29;20511;-64
2022/09/21 08:59:42;;;;;;;8.85;3.90;;;17.60;99.90;;;;;;4062318;29;20039;-64
2022/09/21 09:02:13;;;;;;;7.90;3.45;;;17.70;99.90;;;;;;4061017;29;20051;-66
2022/09/21 09:04:19;;;;;;;8.52;4.15;;;17.80;99.90;;;;;;4034126;29;20169;-64
2022/09/21 09:06:39;;;;;;;8.43;4.28;;;17.80;99.90;;;;;;4059112;29;20048;-64
2022/09/21 09:08:57;;;;;;;7.70;4.05;;;17.90;99.90;;;;;;4063542;29;20076;-64
2022/09/21 09:11:16;;;;;;;10.77;4.90;;;18.00;99.90;;;;;;4060730;29;20040;-64
2022/09/21 09:13:54;;;;;;;6.95;4.05;;;17.90;99.90;;;;;;4063150;29;20051;-65
2022/09/21 09:16:23;;;;;;;11.98;3.65;;;18.00;99.90;;;;;;4062505;29;20076;-64
2022/09/21 09:18:24;;;;;;;7.80;3.50;;;18.00;99.90;;;;;;4061912;29;20047;-64
2022/09/21 09:20:43;;;;;;;10.15;4.60;;;18.10;99.90;;;;;;4062536;29;20040;-65
2022/09/21 09:23:00;;;;;;;8.27;3.38;;;18.10;99.90;;;;;;4058834;29;20048;-64
2022/09/21 09:25:04;;;;;;;7.70;3.88;;;18.10;99.90;;;;;;4062672;29;20526;-65
2022/09/21 09:27:10;;;;;;;5.60;2.75;;;18.20;99.90;;;;;;4058958;29;20408;-65
2022/09/21 09:29:23;;;;;;;5.35;2.70;;;18.20;99.90;;;;;;4059030;29;20032;-65
2022/09/21 09:31:28;;;;;;;5.95;3.08;;;18.30;99.90;;;;;;4058707;29;20044;-64
2022/09/21 09:34:10;;;;;;;6.32;3.03;;;18.30;99.90;;;;;;4058989;28;20076;-65
2022/09/21 09:36:12;;;;;;;8.70;3.67;;;18.40;99.90;;;;;;4053158;29;20028;-66
2022/09/21 09:38:44;;;;;;;9.55;3.33;;;18.30;99.90;;;;;;4061308;29;20032;-65
2022/09/21 09:40:56;;;;;;;7.80;3.22;;;18.30;99.90;;;;;;4061606;29;20072;-65
2022/09/21 09:43:13;;;;;;;7.93;3.67;;;18.20;99.90;;;;;;4063350;29;20401;-65
2022/09/21 09:45:28;;;;;;;9.85;4.55;;;18.20;99.90;;;;;;4062118;29;20107;-65
2022/09/21 09:47:55;;;;;;;8.55;4.60;;;18.20;99.90;;;;;;4059837;29;20126;-64
2022/09/21 09:50:11;;;;;;;8.93;3.85;;;18.20;99.90;;;;;;4062378;29;20710;-64
2022/09/21 09:52:15;;;;;;;8.50;3.78;;;18.30;99.90;;;;;;4065783;29;20457;-64
2022/09/21 09:54:17;;;;;;;8.88;3.72;;;18.30;99.90;;;;;;4066502;29;20036;-64
2022/09/21 09:56:18;;;;;;;;;;;18.40;99.90;;;;;;4064163;29;20119;-65
2022/09/21 09:58:41;;;;;;;8.00;3.67;;;18.40;99.90;;;;;;4066253;29;20320;-64
2022/09/21 10:00:41;;;;;;;6.55;2.90;;;18.40;99.90;;;;;;4063336;29;20052;-65
2022/09/21 10:02:50;;;;;;;7.95;3.20;;;18.40;99.90;;;;;;4061234;29;20107;-64
2022/09/21 10:05:00;;;;;;;6.78;2.90;;;18.40;99.90;;;;;;4065983;29;20051;-65
2022/09/21 10:07:00;;;;;;;10.23;3.53;;;18.50;99.90;;;;;;4062067;29;20096;-67
2022/09/21 10:09:24;;;;;;;6.63;3.60;;;18.50;99.90;;;;;;4063101;29;20055;-65
2022/09/21 10:11:35;;;;;;;7.25;3.67;;;18.70;99.90;;;;;;4065390;29;20033;-65
2022/09/21 10:13:39;;;;;;;9.43;3.90;;;18.70;99.90;;;;;;4065248;29;20040;-65
2022/09/21 10:15:44;;;;;;;8.75;3.70;;;18.70;99.90;;;;;;4064506;29;20041;-64
2022/09/21 10:17:47;;;;;;;10.50;4.32;;;18.80;99.90;;;;;;4065313;29;20040;-64
2022/09/21 10:19:47;;;;;;;10.65;4.13;;;18.90;99.90;;;;;;4065652;29;20032;-66
2022/09/21 10:21:56;;;;;;;7.80;3.67;;;18.90;99.90;;;;;;4065229;29;20132;-65
2022/09/21 10:24:06;;;;;;;7.90;3.78;;;18.90;99.90;;;;;;4065929;29;20576;-65
2022/09/21 10:26:09;;;;;;;7.93;3.40;;;18.70;99.90;;;;;;4059746;29;20497;-65
2022/09/21 10:28:11;;;;;;;5.65;2.70;;;18.80;99.90;;;;;;4064878;29;20555;-65
2022/09/21 10:30:31;;;;;;;5.78;3.20;;;18.80;99.60;;;;;;4063786;29;20156;-65
2022/09/21 10:32:35;;;;;;;7.00;3.00;;;18.80;99.90;;;;;;4064233;29;20048;-65
2022/09/21 10:34:36;;;;;;;7.20;2.85;;;18.80;99.90;;;;;;4065691;29;20064;-64
2022/09/21 10:36:37;;;;;;;4.63;2.38;;;18.90;99.90;;;;;;4065284;29;20043;-65
2022/09/21 10:38:38;;;;;;;7.65;2.95;;;19.00;99.90;;;;;;4065868;29;20036;-65
2022/09/21 10:40:39;;;;;;;8.40;3.42;;;19.00;99.20;;;;;;4064970;29;20036;-65
2022/09/21 10:42:42;;;;;;;10.77;2.92;;;18.90;99.90;;;;;;4061263;29;20037;-65
2022/09/21 10:44:46;;;;;;;6.90;2.92;;;18.90;98.10;;;;;;4064594;29;20032;-65
2022/09/21 10:46:48;;;;;;;7.00;2.65;;;18.90;98.60;;;;;;4064077;29;20460;-65
2022/09/21 10:48:49;;;;;;;6.25;2.70;;;18.90;98.30;;;;;;4063778;29;20040;-65
2022/09/21 10:50:51;;;;;;;6.35;2.35;;;19.00;97.90;;;;;;4054392;29;20028;-65
2022/09/21 10:53:22;;;;;;;7.22;3.33;;;19.00;98.00;;;;;;4060074;29;20494;-65
2022/09/21 10:55:24;;;;;;;5.07;2.58;;;19.00;98.10;;;;;;4061264;28;20045;-65
2022/09/21 10:57:27;;;;;;;7.28;2.40;;;19.00;96.90;;;;;;4061394;28;20104;-65
2022/09/21 10:59:31;;;;;;;3.15;1.88;;;19.10;97.40;;;;;;4058097;29;20044;-64